sensor_id;sensor_type;location;lat;lon;timestamp;pressure;altitude;pressure_sealevel;temperature;humidity
50087;BME280;35967;50.718;7.050;2022-10-15T00:05:10;99980.38;;;16.30;95.02
50087;BME280;35967;50.718;7.050;2022-10-15T00:15:15;99964.31;;;16.23;94.30
50087;BME280;35967;50.718;7.050;2022-10-15T00:25:18;99974.69;;;16.23;94.43
50087;BME280;35967;50.718;7.050;2022-10-15T00:35:27;99953.91;;;16.23;94.64
50087;BME280;35967;50.718;7.050;2022-10-15T00:45:30;99958.28;;;16.22;93.92
50087;BME280;35967;50.718;7.050;2022-10-15T00:55:37;99929.63;;;16.24;94.52
50087;BME280;35967;50.718;7.050;2022-10-15T01:05:41;99964.50;;;16.20;94.18
50087;BME280;35967;50.718;7.050;2022-10-15T01:15:52;99941.16;;;16.04;94.57
50087;BME280;35967;50.718;7.050;2022-10-15T01:26:09;99949.44;;;16.11;94.20
50087;BME280;35967;50.718;7.050;2022-10-15T01:36:28;99946.84;;;15.95;94.30
50087;BME280;35967;50.718;7.050;2022-10-15T01:46:38;99957.81;;;15.52;95.18
50087;BME280;35967;50.718;7.050;2022-10-15T01:56:47;99960.50;;;15.66;94.27
50087;BME280;35967;50.718;7.050;2022-10-15T02:06:59;99948.53;;;15.80;93.15
50087;BME280;35967;50.718;7.050;2022-10-15T02:17:08;99940.09;;;15.76;93.31
50087;BME280;35967;50.718;7.050;2022-10-15T02:27:11;99942.69;;;15.92;93.05
50087;BME280;35967;50.718;7.050;2022-10-15T02:37:19;99950.56;;;15.90;92.68
50087;BME280;35967;50.718;7.050;2022-10-15T02:47:23;99945.72;;;15.84;92.57
50087;BME280;35967;50.718;7.050;2022-10-15T02:57:28;99940.19;;;15.90;92.26
50087;BME280;35967;50.718;7.050;2022-10-15T03:07:32;99948.78;;;15.91;92.31
50087;BME280;35967;50.718;7.050;2022-10-15T03:17:36;99953.81;;;15.78;92.23
50087;BME280;35967;50.718;7.050;2022-10-15T03:27:40;99928.53;;;15.82;91.95
50087;BME280;35967;50.718;7.050;2022-10-15T03:37:57;99946.94;;;15.77;92.08
50087;BME280;35967;50.718;7.050;2022-10-15T03:48:00;99953.97;;;15.75;91.03
50087;BME280;35967;50.718;7.050;2022-10-15T03:58:07;99957.38;;;15.75;91.41
50087;BME280;35967;50.718;7.050;2022-10-15T04:08:16;99962.00;;;15.70;91.56
50087;BME280;35967;50.718;7.050;2022-10-15T04:18:21;99957.47;;;15.74;91.38
50087;BME280;35967;50.718;7.050;2022-10-15T04:28:28;99924.66;;;15.73;91.25
50087;BME280;35967;50.718;7.050;2022-10-15T04:38:33;99923.66;;;15.75;90.20
50087;BME280;35967;50.718;7.050;2022-10-15T04:48:38;99945.63;;;15.70;91.06
50087;BME280;35967;50.718;7.050;2022-10-15T04:58:51;99956.91;;;15.69;90.71
50087;BME280;35967;50.718;7.050;2022-10-15T05:08:56;99948.78;;;15.75;90.23
50087;BME280;35967;50.718;7.050;2022-10-15T05:19:06;99950.22;;;15.81;90.69
50087;BME280;35967;50.718;7.050;2022-10-15T05:29:11;99960.06;;;15.74;90.59
50087;BME280;35967;50.718;7.050;2022-10-15T05:39:15;99966.94;;;15.75;90.29
50087;BME280;35967;50.718;7.050;2022-10-15T05:49:19;99969.88;;;15.69;90.11
50087;BME280;35967;50.718;7.050;2022-10-15T05:59:47;99973.53;;;15.65;90.83
50087;BME280;35967;50.718;7.050;2022-10-15T06:09:50;99971.19;;;15.60;90.43
50087;BME280;35967;50.718;7.050;2022-10-15T06:19:59;99979.03;;;15.42;89.66
50087;BME280;35967;50.718;7.050;2022-10-15T06:30:02;99971.69;;;15.35;89.27
50087;BME280;35967;50.718;7.050;2022-10-15T06:40:08;99985.56;;;15.34;89.42
50087;BME280;35967;50.718;7.050;2022-10-15T06:50:15;100004.97;;;15.42;89.67
50087;BME280;35967;50.718;7.050;2022-10-15T07:00:20;100001.00;;;15.53;90.10
50087;BME280;35967;50.718;7.050;2022-10-15T07:10:25;99997.97;;;15.44;90.78
50087;BME280;35967;50.718;7.050;2022-10-15T07:20:33;99979.41;;;15.68;90.42
50087;BME280;35967;50.718;7.050;2022-10-15T07:30:36;99999.78;;;15.92;90.10
50087;BME280;35967;50.718;7.050;2022-10-15T07:40:40;99998.84;;;15.93;89.83
50087;BME280;35967;50.718;7.050;2022-10-15T07:50:43;99993.50;;;15.96;90.58
50087;BME280;35967;50.718;7.050;2022-10-15T08:00:48;99983.53;;;16.04;91.02
50087;BME280;35967;50.718;7.050;2022-10-15T08:10:52;99983.84;;;16.14;90.31
50087;BME280;35967;50.718;7.050;2022-10-15T08:21:00;99971.84;;;16.28;90.67
50087;BME280;35967;50.718;7.050;2022-10-15T08:31:03;99964.09;;;16.42;90.64
50087;BME280;35967;50.718;7.050;2022-10-15T08:41:17;99960.50;;;16.45;89.85
50087;BME280;35967;50.718;7.050;2022-10-15T08:51:24;99958.94;;;16.56;90.24
50087;BME280;35967;50.718;7.050;2022-10-15T09:01:36;99951.81;;;16.75;90.14
50087;BME280;35967;50.718;7.050;2022-10-15T09:11:53;99945.56;;;16.93;89.87
50087;BME280;35967;50.718;7.050;2022-10-15T09:22:03;99948.53;;;17.01;89.21
50087;BME280;35967;50.718;7.050;2022-10-15T09:32:15;99943.47;;;17.27;88.93
50087;BME280;35967;50.718;7.050;2022-10-15T09:42:27;99945.41;;;17.53;88.32
50087;BME280;35967;50.718;7.050;2022-10-15T09:52:45;99935.53;;;17.58;89.51
50087;BME280;35967;50.718;7.050;2022-10-15T10:03:05;99932.41;;;17.80;86.87
50087;BME280;35967;50.718;7.050;2022-10-15T10:13:22;99931.03;;;18.02;85.43
50087;BME280;35967;50.718;7.050;2022-10-15T10:23:31;99922.34;;;18.16;83.46
50087;BME280;35967;50.718;7.050;2022-10-15T10:33:42;99906.13;;;18.51;81.87
50087;BME280;35967;50.718;7.050;2022-10-15T10:43:54;99904.41;;;18.88;80.25
50087;BME280;35967;50.718;7.050;2022-10-15T10:54:01;99903.94;;;18.96;79.55
50087;BME280;35967;50.718;7.050;2022-10-15T11:04:11;99899.19;;;19.14;78.90
50087;BME280;35967;50.718;7.050;2022-10-15T11:14:25;99894.16;;;19.24;78.63
50087;BME280;35967;50.718;7.050;2022-10-15T11:24:37;99891.50;;;19.37;77.44
50087;BME280;35967;50.718;7.050;2022-10-15T11:35:04;99880.00;;;19.39;77.70
50087;BME280;35967;50.718;7.050;2022-10-15T11:45:33;99868.38;;;19.57;77.06
50087;BME280;35967;50.718;7.050;2022-10-15T11:55:48;99870.66;;;19.61;76.76
50087;BME280;35967;50.718;7.050;2022-10-15T12:05:57;99852.19;;;19.76;76.48
50087;BME280;35967;50.718;7.050;2022-10-15T12:16:15;99852.06;;;19.77;75.57
50087;BME280;35967;50.718;7.050;2022-10-15T12:26:30;99842.66;;;19.88;75.51
50087;BME280;35967;50.718;7.050;2022-10-15T12:36:38;99843.38;;;20.01;75.79
50087;BME280;35967;50.718;7.050;2022-10-15T12:46:42;99840.09;;;20.10;75.82
50087;BME280;35967;50.718;7.050;2022-10-15T12:56:45;99827.50;;;20.15;75.90
50087;BME280;35967;50.718;7.050;2022-10-15T13:06:49;99819.69;;;20.27;74.37
50087;BME280;35967;50.718;7.050;2022-10-15T13:16:53;99814.94;;;20.21;76.39
50087;BME280;35967;50.718;7.050;2022-10-15T13:26:59;99802.59;;;20.23;76.68
50087;BME280;35967;50.718;7.050;2022-10-15T13:37:03;99811.63;;;20.30;75.84
50087;BME280;35967;50.718;7.050;2022-10-15T13:47:23;99823.72;;;20.42;74.92
50087;BME280;35967;50.718;7.050;2022-10-15T13:57:27;99830.88;;;20.52;74.07
50087;BME280;35967;50.718;7.050;2022-10-15T14:07:31;99829.06;;;20.52;73.75
50087;BME280;35967;50.718;7.050;2022-10-15T14:17:34;99831.47;;;20.55;73.09
50087;BME280;35967;50.718;7.050;2022-10-15T14:27:44;99827.78;;;20.46;72.60
50087;BME280;35967;50.718;7.050;2022-10-15T14:37:58;99843.44;;;20.35;75.58
50087;BME280;35967;50.718;7.050;2022-10-15T14:48:10;99842.97;;;20.30;77.04
50087;BME280;35967;50.718;7.050;2022-10-15T14:58:18;99847.69;;;20.25;76.79
50087;BME280;35967;50.718;7.050;2022-10-15T15:08:24;99851.84;;;20.27;76.10
50087;BME280;35967;50.718;7.050;2022-10-15T15:18:28;99860.81;;;20.36;73.60
50087;BME280;35967;50.718;7.050;2022-10-15T15:28:32;99867.91;;;20.34;73.73
50087;BME280;35967;50.718;7.050;2022-10-15T15:38:35;99900.69;;;20.27;74.02
50087;BME280;35967;50.718;7.050;2022-10-15T15:48:39;99916.59;;;20.24;73.65
50087;BME280;35967;50.718;7.050;2022-10-15T15:58:42;99908.41;;;20.17;72.87
50087;BME280;35967;50.718;7.050;2022-10-15T16:08:49;99961.75;;;19.53;74.73
50087;BME280;35967;50.718;7.050;2022-10-15T16:18:53;99969.75;;;19.26;75.86
50087;BME280;35967;50.718;7.050;2022-10-15T16:28:57;99978.50;;;19.12;77.74
50087;BME280;35967;50.718;7.050;2022-10-15T16:39:01;100002.00;;;19.12;77.72
50087;BME280;35967;50.718;7.050;2022-10-15T16:49:06;100028.44;;;18.80;79.78
50087;BME280;35967;50.718;7.050;2022-10-15T16:59:10;100037.69;;;18.98;79.64
50087;BME280;35967;50.718;7.050;2022-10-15T17:09:14;100066.16;;;19.01;79.70
50087;BME280;35967;50.718;7.050;2022-10-15T17:19:19;100087.03;;;19.01;79.97
50087;BME280;35967;50.718;7.050;2022-10-15T17:29:25;100099.72;;;18.93;79.19
50087;BME280;35967;50.718;7.050;2022-10-15T17:39:34;100142.31;;;18.66;78.15
50087;BME280;35967;50.718;7.050;2022-10-15T17:49:38;100167.41;;;18.54;78.19
50087;BME280;35967;50.718;7.050;2022-10-15T17:59:42;100171.00;;;18.66;77.98
50087;BME280;35967;50.718;7.050;2022-10-15T18:09:53;100172.59;;;18.54;78.44
50087;BME280;35967;50.718;7.050;2022-10-15T18:19:56;100186.91;;;18.62;78.09
50087;BME280;35967;50.718;7.050;2022-10-15T18:30:00;100176.97;;;18.54;78.18
50087;BME280;35967;50.718;7.050;2022-10-15T18:40:04;100176.03;;;18.55;77.42
50087;BME280;35967;50.718;7.050;2022-10-15T18:50:08;100181.09;;;18.43;78.04
50087;BME280;35967;50.718;7.050;2022-10-15T19:00:14;100196.66;;;18.31;78.31
50087;BME280;35967;50.718;7.050;2022-10-15T19:10:18;100182.16;;;18.26;78.93
50087;BME280;35967;50.718;7.050;2022-10-15T19:20:21;100201.66;;;18.34;79.09
50087;BME280;35967;50.718;7.050;2022-10-15T19:30:25;100214.53;;;18.37;79.02
50087;BME280;35967;50.718;7.050;2022-10-15T19:40:30;100182.53;;;18.20;79.69
50087;BME280;35967;50.718;7.050;2022-10-15T19:50:36;100201.88;;;18.31;79.50
50087;BME280;35967;50.718;7.050;2022-10-15T20:00:47;100216.75;;;18.28;79.64
50087;BME280;35967;50.718;7.050;2022-10-15T20:10:51;100219.66;;;18.24;79.04
50087;BME280;35967;50.718;7.050;2022-10-15T20:20:55;100229.88;;;18.12;78.30
50087;BME280;35967;50.718;7.050;2022-10-15T20:31:04;100249.81;;;17.83;79.80
50087;BME280;35967;50.718;7.050;2022-10-15T20:41:09;100270.56;;;17.70;80.43
50087;BME280;35967;50.718;7.050;2022-10-15T20:51:15;100287.34;;;17.64;80.80
50087;BME280;35967;50.718;7.050;2022-10-15T21:01:19;100313.47;;;17.63;80.68
50087;BME280;35967;50.718;7.050;2022-10-15T21:11:23;100324.00;;;17.76;80.41
50087;BME280;35967;50.718;7.050;2022-10-15T21:21:26;100321.41;;;17.76;81.07
50087;BME280;35967;50.718;7.050;2022-10-15T21:31:31;100325.88;;;17.74;80.31
50087;BME280;35967;50.718;7.050;2022-10-15T21:41:35;100320.09;;;17.69;80.23
50087;BME280;35967;50.718;7.050;2022-10-15T21:51:40;100322.88;;;17.65;79.45
50087;BME280;35967;50.718;7.050;2022-10-15T22:01:45;100328.47;;;17.74;78.79
50087;BME280;35967;50.718;7.050;2022-10-15T22:11:49;100336.28;;;17.74;77.13
50087;BME280;35967;50.718;7.050;2022-10-15T22:21:52;100325.28;;;17.69;76.73
50087;BME280;35967;50.718;7.050;2022-10-15T22:31:57;100322.88;;;17.65;76.89
50087;BME280;35967;50.718;7.050;2022-10-15T22:42:00;100325.53;;;17.64;76.69
50087;BME280;35967;50.718;7.050;2022-10-15T22:52:06;100337.06;;;17.60;75.98
50087;BME280;35967;50.718;7.050;2022-10-15T23:02:09;100352.88;;;17.41;75.73
50087;BME280;35967;50.718;7.050;2022-10-15T23:12:13;100357.84;;;17.29;76.42
50087;BME280;35967;50.718;7.050;2022-10-15T23:22:16;100360.94;;;17.36;76.84
50087;BME280;35967;50.718;7.050;2022-10-15T23:32:20;100358.00;;;17.42;76.21
50087;BME280;35967;50.718;7.050;2022-10-15T23:42:23;100376.38;;;17.39;76.97
50087;BME280;35967;50.718;7.050;2022-10-15T23:52:27;100364.38;;;17.37;76.90
